createdAt,value
2022-12-08T00:01:07.777Z,100237.00
2022-12-08T00:03:34.853Z,100248.28
2022-12-08T00:06:21.606Z,100234.28
2022-12-08T00:09:06.944Z,100245.75
2022-12-08T00:11:33.700Z,100242.88
2022-12-08T00:14:00.305Z,100230.28
2022-12-08T00:16:26.863Z,100237.59
2022-12-08T00:18:53.240Z,100220.84
2022-12-08T00:21:19.682Z,100224.13
2022-12-08T00:23:46.008Z,100228.59
2022-12-08T00:26:12.323Z,100224.13
2022-12-08T00:28:38.622Z,100215.34
2022-12-08T00:31:10.841Z,100221.47
2022-12-08T00:33:37.940Z,100217.13
2022-12-08T00:36:13.584Z,100201.22
2022-12-08T00:38:40.944Z,100204.84
2022-12-08T00:41:12.711Z,100207.38
2022-12-08T00:43:39.201Z,100206.75
2022-12-08T00:46:05.725Z,100210.13
2022-12-08T00:48:32.272Z,100196.88
2022-12-08T00:50:58.541Z,100206.75
2022-12-08T00:53:24.884Z,100195.28
2022-12-08T00:55:51.196Z,100198.47
2022-12-08T00:58:17.514Z,100205.50
2022-12-08T01:00:44.041Z,100195.28
2022-12-08T01:03:11.368Z,100202.75
2022-12-08T01:09:24.887Z,100199.81
2022-12-08T01:11:51.433Z,100186.75
2022-12-08T01:14:17.813Z,100193.09
2022-12-08T01:16:44.191Z,100192.16
2022-12-08T01:19:15.857Z,100196.59
2022-12-08T01:21:43.490Z,100197.47
2022-12-08T01:24:15.892Z,100187.03
2022-12-08T01:26:42.449Z,100194.50
2022-12-08T01:29:09.188Z,100197.25
2022-12-08T01:31:35.863Z,100187.50
2022-12-08T01:34:02.282Z,100185.34
2022-12-08T01:36:31.542Z,100189.41
2022-12-08T01:39:02.169Z,100184.19
2022-12-08T01:41:31.400Z,100186.09
2022-12-08T01:44:04.490Z,100186.84
2022-12-08T01:46:33.201Z,100169.25
2022-12-08T01:49:36.202Z,100174.06
2022-12-08T01:52:18.352Z,100175.19
2022-12-08T01:55:20.363Z,100166.50
2022-12-08T01:57:50.923Z,100174.13
2022-12-08T02:00:20.292Z,100169.03
2022-12-08T02:03:02.449Z,100161.72
2022-12-08T02:05:33.005Z,100160.25
2022-12-08T02:08:01.970Z,100154.84
2022-12-08T02:10:30.543Z,100127.88
2022-12-08T02:12:58.681Z,100148.47
2022-12-08T02:15:39.234Z,100147.72
2022-12-08T02:18:57.677Z,100145.41
2022-12-08T02:22:01.263Z,100139.63
2022-12-08T02:24:36.773Z,100136.03
2022-12-08T02:27:20.731Z,100137.63
2022-12-08T02:30:06.235Z,100148.44
2022-12-08T02:33:01.224Z,100138.03
2022-12-08T02:35:54.046Z,100135.09
2022-12-08T02:38:39.712Z,100140.59
2022-12-08T02:41:31.858Z,100134.44
2022-12-08T02:44:24.322Z,100130.63
2022-12-08T02:46:55.736Z,100137.09
2022-12-08T02:49:27.303Z,100124.47
2022-12-08T02:52:07.756Z,100126.66
2022-12-08T02:54:36.052Z,100121.78
2022-12-08T02:57:13.318Z,100121.00
2022-12-08T02:59:48.506Z,100122.31
2022-12-08T03:02:59.220Z,100121.84
2022-12-08T03:05:31.366Z,100115.31
2022-12-08T03:08:09.703Z,100117.75
2022-12-08T03:10:42.845Z,100109.81
2022-12-08T03:13:29.559Z,100114.81
2022-12-08T03:15:56.475Z,100107.50
2022-12-08T03:18:28.716Z,100104.00
2022-12-08T03:20:55.499Z,100105.06
2022-12-08T03:23:22.622Z,100102.22
2022-12-08T03:25:57.785Z,100086.72
2022-12-08T03:28:24.563Z,100101.28
2022-12-08T03:30:56.404Z,100081.59
2022-12-08T03:33:33.046Z,100099.78
2022-12-08T03:36:02.306Z,100085.47
2022-12-08T03:38:38.166Z,100089.75
2022-12-08T03:41:20.040Z,100087.25
2022-12-08T03:43:47.458Z,100077.09
2022-12-08T03:46:15.914Z,100085.56
2022-12-08T03:48:42.957Z,100076.66
2022-12-08T03:51:09.589Z,100070.22
2022-12-08T03:53:35.994Z,100068.09
2022-12-08T03:56:07.142Z,100073.72
2022-12-08T03:58:37.438Z,100063.97
2022-12-08T04:01:03.991Z,100058.88
2022-12-08T04:03:30.281Z,100060.66
2022-12-08T04:05:56.583Z,100062.28
2022-12-08T04:08:23.085Z,100062.91
2022-12-08T04:10:49.483Z,100056.88
2022-12-08T04:13:15.862Z,100022.53
2022-12-08T04:15:48.777Z,100049.59
2022-12-08T04:18:15.954Z,100047.69
2022-12-08T04:20:43.707Z,100049.06
2022-12-08T04:23:12.170Z,100051.41
2022-12-08T04:25:39.223Z,100049.50
2022-12-08T04:28:06.091Z,100042.41
2022-12-08T04:30:32.901Z,100053.63
2022-12-08T04:32:59.806Z,100048.31
2022-12-08T04:35:26.114Z,100035.84
2022-12-08T04:37:52.409Z,100034.66
2022-12-08T04:40:18.991Z,100037.03
2022-12-08T04:42:46.453Z,100035.50
2022-12-08T04:45:13.082Z,100038.50
2022-12-08T04:47:39.487Z,100027.66
2022-12-08T04:50:07.132Z,100026.94
2022-12-08T04:52:33.746Z,100030.53
2022-12-08T04:55:00.138Z,100039.34
2022-12-08T04:57:26.468Z,100038.69
2022-12-08T04:59:52.782Z,100029.25
2022-12-08T05:02:19.578Z,100038.50
2022-12-08T05:04:46.135Z,100039.63
2022-12-08T05:07:12.445Z,100040.38
2022-12-08T05:09:38.766Z,100030.94
2022-12-08T05:12:05.254Z,100031.06
2022-12-08T05:14:31.553Z,100035.28
2022-12-08T05:16:57.817Z,100023.19
2022-12-08T05:19:24.292Z,100026.28
2022-12-08T05:21:50.630Z,100029.78
2022-12-08T05:24:16.973Z,100024.69
2022-12-08T05:26:43.265Z,100025.75
2022-12-08T05:29:09.554Z,100030.19
2022-12-08T05:31:35.966Z,100014.69
2022-12-08T05:34:03.446Z,100021.91
2022-12-08T05:36:30.113Z,100022.09
2022-12-08T05:38:57.984Z,100021.16
2022-12-08T05:41:24.810Z,100010.84
2022-12-08T05:43:51.224Z,100005.94
2022-12-08T05:46:17.914Z,100008.84
2022-12-08T05:48:44.398Z,100016.78
2022-12-08T05:51:19.958Z,100017.75
2022-12-08T05:53:46.920Z,100014.81
2022-12-08T05:56:13.558Z,100017.25
2022-12-08T05:58:39.973Z,100013.63
2022-12-08T06:01:06.350Z,100003.13
2022-12-08T06:03:33.201Z,100005.16
2022-12-08T06:05:59.695Z,100014.06
2022-12-08T06:08:26.093Z,100008.44
2022-12-08T06:10:52.460Z,100010.47
2022-12-08T06:13:18.790Z,99994.22
2022-12-08T06:15:45.203Z,100007.25
2022-12-08T06:18:11.895Z,100010.97
2022-12-08T06:20:38.295Z,100004.50
2022-12-08T06:23:04.633Z,100011.69
2022-12-08T06:25:30.956Z,100011.59
2022-12-08T06:27:57.421Z,100007.66
2022-12-08T06:30:23.798Z,100015.59
2022-12-08T06:32:50.182Z,100011.34
2022-12-08T06:35:16.749Z,100015.72
2022-12-08T06:37:43.079Z,100020.25
2022-12-08T06:40:09.890Z,100009.31
2022-12-08T06:42:46.461Z,100027.47
2022-12-08T06:45:15.410Z,100027.25
2022-12-08T06:47:41.867Z,100025.56
2022-12-08T06:50:10.773Z,100033.97
2022-12-08T06:52:45.691Z,100029.16
2022-12-08T06:55:35.305Z,100029.16
2022-12-08T06:58:02.387Z,100023.13
2022-12-08T07:00:28.768Z,100021.44
2022-12-08T07:02:55.139Z,100029.81
2022-12-08T07:05:21.492Z,100031.94
2022-12-08T07:07:47.872Z,100021.63
2022-12-08T07:10:14.270Z,100031.09
2022-12-08T07:12:40.594Z,100023.03
2022-12-08T07:15:07.701Z,100023.13
2022-12-08T07:17:33.994Z,100021.22
2022-12-08T07:20:00.334Z,100023.53
2022-12-08T07:22:26.654Z,100025.84
2022-12-08T07:24:52.985Z,100032.22
2022-12-08T07:27:19.313Z,100023.31
2022-12-08T07:29:45.840Z,100019.72
2022-12-08T07:32:12.191Z,100020.78
2022-12-08T07:34:38.565Z,100021.72
2022-12-08T07:37:04.862Z,100025.84
2022-12-08T07:39:31.322Z,100022.47
2022-12-08T07:41:57.677Z,100026.63
2022-12-08T07:44:24.279Z,100016.31
2022-12-08T07:46:50.581Z,100031.16
2022-12-08T07:49:16.930Z,100026.53
2022-12-08T07:51:43.308Z,100027.47
2022-12-08T07:54:12.275Z,100016.78
2022-12-08T07:56:38.625Z,100023.03
2022-12-08T07:59:05.006Z,100027.59
2022-12-08T08:01:33.507Z,100004.97
2022-12-08T08:06:54.891Z,100018.47
2022-12-08T08:09:21.204Z,100022.81
2022-12-08T08:12:07.218Z,100011.91
2022-12-08T08:14:34.680Z,100014.75
2022-12-08T08:17:01.212Z,100024.63
2022-12-08T08:19:27.719Z,100015.06
2022-12-08T08:21:54.189Z,100015.19
2022-12-08T08:24:22.066Z,100022.28
2022-12-08T08:26:48.548Z,100021.22
2022-12-08T08:29:14.983Z,100019.31
2022-12-08T08:31:41.480Z,100023.97
2022-12-08T08:34:08.945Z,100015.91
2022-12-08T08:36:35.346Z,100020.47
2022-12-08T08:39:02.283Z,100024.81
2022-12-08T08:41:28.654Z,100025.22
2022-12-08T08:43:55.385Z,100025.84
2022-12-08T08:46:21.789Z,100013.13
2022-12-08T08:48:48.172Z,100022.34
2022-12-08T08:51:15.123Z,100018.00
2022-12-08T08:53:42.434Z,100020.66
2022-12-08T08:56:13.860Z,100017.28
2022-12-08T08:58:41.005Z,100026.75
2022-12-08T09:01:07.987Z,100014.97
2022-12-08T09:03:34.334Z,100009.31
2022-12-08T09:06:00.711Z,100009.22
2022-12-08T09:08:27.366Z,100014.47
2022-12-08T09:10:54.918Z,100016.16
2022-12-08T09:13:22.134Z,100019.53
2022-12-08T09:15:48.525Z,100021.06
2022-12-08T09:18:14.923Z,100019.03
2022-12-08T09:20:41.198Z,100011.09
2022-12-08T09:23:07.490Z,100007.38
2022-12-08T09:25:33.890Z,100004.44
2022-12-08T09:28:00.189Z,100015.38
2022-12-08T09:30:26.577Z,100009.50
2022-12-08T09:32:52.948Z,100006.22
2022-12-08T09:35:19.275Z,100006.44
2022-12-08T09:37:45.620Z,100009.72
2022-12-08T09:40:17.374Z,100007.97
2022-12-08T09:43:03.395Z,100008.81
2022-12-08T09:45:33.133Z,99997.13
2022-12-08T09:48:28.133Z,99997.13
2022-12-08T09:50:56.710Z,99984.19
2022-12-08T09:53:35.466Z,99999.47
2022-12-08T09:56:02.530Z,99995.53
2022-12-08T09:58:51.834Z,99992.69
2022-12-08T10:01:20.041Z,99988.03
2022-12-08T10:03:46.536Z,99999.72
2022-12-08T10:06:31.223Z,99971.69
2022-12-08T10:09:23.024Z,99982.38
2022-12-08T10:12:17.128Z,99975.50
2022-12-08T10:14:57.919Z,99979.44
2022-12-08T10:17:34.307Z,99975.69
2022-12-08T10:20:13.370Z,99978.25
2022-12-08T10:22:44.480Z,99978.06
2022-12-08T10:25:17.764Z,99971.66
2022-12-08T10:27:44.418Z,99959.13
2022-12-08T10:30:15.235Z,99964.13
2022-12-08T10:32:45.213Z,99966.38
2022-12-08T10:35:14.533Z,99960.72
2022-12-08T10:37:41.099Z,99964.53
2022-12-08T10:40:12.107Z,99960.59
2022-12-08T10:42:46.903Z,99951.56
2022-12-08T10:45:37.250Z,99955.28
2022-12-08T10:48:21.826Z,99938.63
2022-12-08T10:50:55.346Z,99947.44
2022-12-08T10:53:44.481Z,99939.47
2022-12-08T10:56:17.048Z,99944.44
2022-12-08T10:58:48.124Z,99937.44
2022-12-08T11:01:21.909Z,99932.25
2022-12-08T11:03:52.509Z,99931.69
2022-12-08T11:06:30.741Z,99931.44
2022-12-08T11:09:02.919Z,99928.19
2022-12-08T11:11:48.303Z,99936.75
2022-12-08T11:14:26.903Z,99932.72
2022-12-08T11:17:05.536Z,99932.09
2022-12-08T11:19:37.898Z,99920.41
2022-12-08T11:22:25.024Z,99925.28
2022-12-08T11:25:19.449Z,99918.03
2022-12-08T11:27:49.192Z,99908.88
2022-12-08T11:30:21.610Z,99898.97
2022-12-08T11:33:20.096Z,99903.72
2022-12-08T11:36:09.571Z,99893.16
2022-12-08T11:38:41.629Z,99885.78
2022-12-08T11:41:16.010Z,99898.13
2022-12-08T11:43:58.488Z,99896.72
2022-12-08T11:46:37.097Z,99883.50
2022-12-08T11:49:09.288Z,99888.13
2022-12-08T11:51:42.199Z,99891.38
2022-12-08T11:54:08.533Z,99883.78
2022-12-08T11:56:40.188Z,99889.59
2022-12-08T11:59:38.304Z,99881.63
2022-12-08T12:02:06.361Z,99883.56
2022-12-08T12:04:47.072Z,99876.53
2022-12-08T12:07:32.427Z,99877.28
2022-12-08T12:10:20.504Z,99879.09
2022-12-08T12:12:52.901Z,99879.34
2022-12-08T12:15:52.934Z,99874.59
2022-12-08T12:18:31.454Z,99861.91
2022-12-08T12:21:21.534Z,99860.56
2022-12-08T12:24:00.147Z,99865.03
2022-12-08T12:26:31.824Z,99859.72
2022-12-08T12:29:15.935Z,99860.44
2022-12-08T12:31:47.180Z,99850.75
2022-12-08T12:34:43.563Z,99868.69
2022-12-08T12:37:12.105Z,99855.41
2022-12-08T12:40:07.471Z,99847.28
2022-12-08T12:43:03.581Z,99853.44
2022-12-08T12:45:34.273Z,99847.28
2022-12-08T12:48:00.530Z,99843.19
2022-12-08T12:50:32.980Z,99853.31
2022-12-08T12:53:01.175Z,99845.84
2022-12-08T12:55:47.172Z,99838.34
2022-12-08T12:58:19.632Z,99840.53
2022-12-08T13:00:45.944Z,99845.34
2022-12-08T13:03:17.221Z,99843.28
2022-12-08T13:05:53.294Z,99839.53
2022-12-08T13:08:23.176Z,99845.59
2022-12-08T13:11:10.291Z,99835.06
2022-12-08T13:13:38.501Z,99841.47
2022-12-08T13:16:18.498Z,99842.44
2022-12-08T13:18:51.229Z,99836.53
2022-12-08T13:21:22.721Z,99827.09
2022-12-08T13:24:13.900Z,99822.84
2022-12-08T13:27:10.677Z,99819.69
2022-12-08T13:29:40.363Z,99819.69
2022-12-08T13:32:09.634Z,99828.38
2022-12-08T13:34:49.200Z,99813.53
2022-12-08T13:37:28.875Z,99825.97
2022-12-08T13:39:59.128Z,99810.97
2022-12-08T13:42:44.223Z,99820.16
2022-12-08T13:45:59.191Z,99811.47
2022-12-08T13:48:30.244Z,99812.63
2022-12-08T13:57:10.714Z,99807.19
2022-12-08T13:59:43.623Z,99815.94
2022-12-08T14:02:34.533Z,99806.47
2022-12-08T14:05:34.731Z,99808.06
2022-12-08T14:07:51.683Z,99811.22
2022-12-08T14:10:21.802Z,99815.56
2022-12-08T14:13:02.563Z,99819.31
2022-12-08T14:15:37.191Z,99816.66
2022-12-08T14:18:05.781Z,99819.44
2022-12-08T14:20:51.757Z,99819.56
2022-12-08T14:23:20.410Z,99818.47
2022-12-08T14:25:48.131Z,99809.78
2022-12-08T14:28:14.544Z,99815.19
2022-12-08T14:30:41.097Z,99817.25
2022-12-08T14:33:14.909Z,99820.63
2022-12-08T14:35:41.689Z,99821.59
2022-12-08T14:38:16.654Z,99816.28
2022-12-08T14:40:44.405Z,99815.31
2022-12-08T14:43:10.714Z,99809.97
2022-12-08T14:45:42.813Z,99812.50
2022-12-08T14:48:19.191Z,99816.47
2022-12-08T14:51:03.801Z,99813.94
2022-12-08T14:53:37.492Z,99810.94
2022-12-08T14:56:31.347Z,99816.69
2022-12-08T14:59:17.415Z,99816.69
2022-12-08T15:01:43.979Z,99818.72
2022-12-08T15:04:19.122Z,99815.31
2022-12-08T15:07:02.723Z,99817.81
2022-12-08T15:09:38.508Z,99808.00
2022-12-08T15:12:24.704Z,99814.50
2022-12-08T15:14:57.325Z,99821.28
2022-12-08T15:17:48.894Z,99824.41
2022-12-08T15:20:35.475Z,99831.00
2022-12-08T15:23:02.572Z,99812.88
2022-12-08T15:25:29.000Z,99822.03
2022-12-08T15:27:56.984Z,99824.63
2022-12-08T15:30:26.317Z,99829.41
2022-12-08T15:32:54.041Z,99826.56
2022-12-08T15:35:20.532Z,99829.00
2022-12-08T15:37:46.970Z,99810.53
2022-12-08T15:40:19.418Z,99822.53
2022-12-08T15:42:45.940Z,99829.28
2022-12-08T15:45:14.380Z,99818.13
2022-12-08T15:47:42.413Z,99826.22
2022-12-08T15:50:20.098Z,99819.22
2022-12-08T15:52:46.846Z,99810.72
2022-12-08T15:55:14.653Z,99812.75
2022-12-08T15:58:44.566Z,99825.38
2022-12-08T16:00:53.852Z,99818.41
2022-12-08T16:04:19.796Z,99831.69
2022-12-08T16:09:21.154Z,99828.78
2022-12-08T16:12:08.476Z,99824.75
2022-12-08T16:17:23.410Z,99821.81
2022-12-08T16:19:49.777Z,99820.53
2022-12-08T16:23:03.714Z,99825.53
2022-12-08T16:25:20.202Z,99827.22
2022-12-08T16:28:03.042Z,99821.06
2022-12-08T16:30:32.855Z,99816.72
2022-12-08T16:32:59.215Z,99824.69
2022-12-08T16:35:25.541Z,99804.97
2022-12-08T16:37:51.842Z,99824.56
2022-12-08T16:40:18.290Z,99825.53
2022-12-08T16:42:45.804Z,99817.22
2022-12-08T16:45:29.679Z,99813.84
2022-12-08T16:48:00.600Z,99812.03
2022-12-08T16:50:31.313Z,99805.78
2022-12-08T16:53:03.508Z,99815.31
2022-12-08T16:55:29.869Z,99818.06
2022-12-08T16:57:56.555Z,99807.81
2022-12-08T17:00:25.809Z,99815.75
2022-12-08T17:02:53.243Z,99817.47
2022-12-08T17:05:22.166Z,99812.16
2022-12-08T17:07:50.477Z,99795.28
2022-12-08T17:10:19.652Z,99802.69
2022-12-08T17:12:46.256Z,99800.91
2022-12-08T17:15:16.493Z,99801.66
2022-12-08T17:17:43.186Z,99803.47
2022-12-08T17:20:14.691Z,99800.81
2022-12-08T17:22:41.035Z,99799.22
2022-12-08T17:25:08.063Z,99799.00
2022-12-08T17:27:34.883Z,99791.06
2022-12-08T17:30:01.279Z,99797.19
2022-12-08T17:32:27.729Z,99795.50
2022-12-08T17:34:54.100Z,99802.63
2022-12-08T17:37:20.383Z,99804.19
2022-12-08T17:39:46.773Z,99797.19
2022-12-08T17:42:13.087Z,99800.16
2022-12-08T17:44:39.484Z,99791.78
2022-12-08T17:47:05.911Z,99798.59
2022-12-08T17:49:35.198Z,99798.81
2022-12-08T17:52:04.799Z,99796.25
2022-12-08T17:54:31.485Z,99800.41
2022-12-08T17:56:58.651Z,99793.50
2022-12-08T17:59:26.514Z,99797.09
2022-12-08T18:01:54.599Z,99787.25
2022-12-08T18:04:21.606Z,99796.16
2022-12-08T18:06:48.046Z,99794.38
2022-12-08T18:09:14.923Z,99796.91
2022-12-08T18:11:42.068Z,99798.69
2022-12-08T18:14:10.027Z,99801.66
2022-12-08T18:16:38.225Z,99798.50
2022-12-08T18:19:05.221Z,99796.25
2022-12-08T18:21:31.680Z,99796.47
2022-12-08T18:23:58.323Z,99796.91
2022-12-08T18:26:27.257Z,99797.53
2022-12-08T18:28:53.652Z,99786.19
2022-12-08T18:31:21.558Z,99790.44
2022-12-08T18:33:49.365Z,99781.00
2022-12-08T18:36:20.245Z,99790.75
2022-12-08T18:38:46.853Z,99789.41
2022-12-08T18:41:16.094Z,99790.25
2022-12-08T18:43:42.686Z,99787.59
2022-12-08T18:46:12.012Z,99794.59
2022-12-08T18:48:41.430Z,99790.44
2022-12-08T18:51:12.235Z,99787.28
2022-12-08T18:53:39.698Z,99798.59
2022-12-08T18:56:07.263Z,99801.38
2022-12-08T18:58:34.249Z,99795.41
2022-12-08T19:01:00.852Z,99794.91
2022-12-08T19:03:27.346Z,99799.44
2022-12-08T19:06:06.513Z,99801.25
2022-12-08T19:08:32.956Z,99795.31
2022-12-08T19:11:00.004Z,99815.34
2022-12-08T19:13:27.218Z,99810.91
2022-12-08T19:15:54.116Z,99815.34
2022-12-08T19:18:20.541Z,99821.59
2022-12-08T19:20:47.005Z,99818.22
2022-12-08T19:23:14.478Z,99818.09
2022-12-08T19:25:41.463Z,99813.75
2022-12-08T19:28:07.822Z,99810.91
2022-12-08T19:30:34.180Z,99807.63
2022-12-08T19:33:00.560Z,99810.03
2022-12-08T19:35:26.904Z,99805.91
2022-12-08T19:37:54.712Z,99805.69
2022-12-08T19:40:39.479Z,99801.34
2022-12-08T19:43:33.276Z,99804.84
2022-12-08T19:45:59.830Z,99795.44
2022-12-08T19:48:26.243Z,99793.28
2022-12-08T19:50:52.631Z,99789.19
2022-12-08T19:53:19.415Z,99802.19
2022-12-08T19:55:46.991Z,99791.81
2022-12-08T19:58:13.775Z,99805.91
2022-12-08T20:00:40.906Z,99785.38
2022-12-08T20:03:07.353Z,99799.16
2022-12-08T20:05:36.296Z,99802.53
2022-12-08T20:08:02.710Z,99795.63
2022-12-08T20:10:33.620Z,99797.53
2022-12-08T20:13:27.325Z,99791.22
2022-12-08T20:15:53.948Z,99788.75
2022-12-08T20:18:20.478Z,99783.66
2022-12-08T20:20:47.538Z,99788.22
2022-12-08T20:23:15.606Z,99789.94
2022-12-08T20:25:44.192Z,99790.97
2022-12-08T20:28:10.592Z,99793.53
2022-12-08T20:30:41.762Z,99797.22
2022-12-08T20:33:08.473Z,99796.78
2022-12-08T20:35:34.805Z,99797.53
2022-12-08T20:38:01.159Z,99792.97
2022-12-08T20:40:27.472Z,99796.38
2022-12-08T20:42:53.791Z,99797.31
2022-12-08T20:45:20.292Z,99792.03
2022-12-08T20:47:46.606Z,99801.38
2022-12-08T20:50:13.066Z,99798.50
2022-12-08T20:52:39.602Z,99796.91
2022-12-08T20:55:07.561Z,99800.63
2022-12-08T20:57:34.143Z,99789.28
2022-12-08T21:00:00.702Z,99788.66
2022-12-08T21:02:27.476Z,99795.41
2022-12-08T21:04:54.349Z,99793.72
2022-12-08T21:07:20.771Z,99795.41
2022-12-08T21:09:47.368Z,99793.94
2022-12-08T21:12:13.895Z,99782.91
2022-12-08T21:14:40.390Z,99789.78
2022-12-08T21:17:07.578Z,99788.84
2022-12-08T21:19:34.057Z,99790.00
2022-12-08T21:22:00.426Z,99782.06
2022-12-08T21:24:33.532Z,99786.72
2022-12-08T21:27:00.818Z,99779.31
2022-12-08T21:29:27.420Z,99785.00
2022-12-08T21:31:56.165Z,99788.53
2022-12-08T21:34:22.762Z,99794.03
2022-12-08T21:36:49.295Z,99795.81
2022-12-08T21:39:15.799Z,99798.25
2022-12-08T21:42:00.961Z,99792.31
2022-12-08T21:44:27.496Z,99791.59
2022-12-08T21:46:53.978Z,99795.19
2022-12-08T21:49:20.821Z,99784.72
2022-12-08T21:51:47.468Z,99790.75
2022-12-08T21:54:18.622Z,99788.22
2022-12-08T21:56:45.664Z,99791.03
2022-12-08T21:59:12.208Z,99782.25
2022-12-08T22:01:39.046Z,99785.97
2022-12-08T22:04:05.876Z,99788.50
2022-12-08T22:06:32.367Z,99790.19
2022-12-08T22:08:58.813Z,99801.63
2022-12-08T22:11:25.474Z,99798.13
2022-12-08T22:13:52.078Z,99808.72
2022-12-08T22:16:18.566Z,99801.75
2022-12-08T22:18:45.513Z,99801.75
2022-12-08T22:21:17.210Z,99805.34
2022-12-08T22:23:44.444Z,99797.50
2022-12-08T22:26:11.765Z,99796.00
2022-12-08T22:28:41.076Z,99799.41
2022-12-08T22:31:13.603Z,99792.22
2022-12-08T22:33:40.918Z,99796.00
2022-12-08T22:36:13.054Z,99797.91
2022-12-08T22:38:40.496Z,99801.50
2022-12-08T22:41:07.198Z,99788.81
2022-12-08T22:43:34.603Z,99788.72
2022-12-08T22:46:01.423Z,99784.47
2022-12-08T22:48:28.055Z,99783.09
2022-12-08T22:51:01.031Z,99786.41
2022-12-08T22:53:27.481Z,99779.50
2022-12-08T22:55:54.221Z,99775.16
2022-12-08T22:58:20.896Z,99773.47
2022-12-08T23:00:47.363Z,99767.66
2022-12-08T23:03:13.819Z,99773.56
2022-12-08T23:05:40.707Z,99770.06
2022-12-08T23:08:08.440Z,99775.03
2022-12-08T23:10:35.507Z,99771.09
2022-12-08T23:13:04.167Z,99771.00
2022-12-08T23:15:31.568Z,99771.44
2022-12-08T23:17:58.122Z,99775.09
2022-12-08T23:20:24.570Z,99774.16
2022-12-08T23:22:51.264Z,99774.81
2022-12-08T23:25:18.506Z,99773.00
2022-12-08T23:27:46.064Z,99772.06
2022-12-08T23:30:13.165Z,99770.66
2022-12-08T23:32:39.657Z,99765.25
2022-12-08T23:35:07.163Z,99759.78
2022-12-08T23:37:33.588Z,99765.59
2022-12-08T23:40:00.040Z,99765.50
2022-12-08T23:42:28.340Z,99756.19
2022-12-08T23:44:54.751Z,99758.09
2022-12-08T23:47:21.388Z,99752.78
2022-12-08T23:49:47.906Z,99749.19
2022-12-08T23:52:14.429Z,99749.19
2022-12-08T23:54:41.019Z,99751.09
2022-12-08T23:57:07.849Z,99749.19
2022-12-08T23:59:34.276Z,99751.94
